Central Oregon RPC :: CARSON, CITYA

liberation: 2020-06-27  05:45     latitude: 39.170200     longitude: -119.749300 34 birds
# LOFT PRING MILES ARRIVAL SPEED ToWin
1 ROCKY TOP AU19-JEDD-0504 356.881 2020-06-27 13:54:41.183 1282.680 00:00:00
2 ROCKY TOP AU19-JEDD-0505 356.881 2020-06-27 14:21:59.767 1214.924 00:27:19
3 ROCKY TOP AU19-ARPU-29027 356.881 2020-06-27 14:37:03.160 1180.543 00:42:22
4 RUETER FAMILY LOFT AU17-CORP-0419 390.961 2020-06-27 15:50:36.092 1136.212 01:09:09
5 ROCKY TOP AU16-CORP-7143 356.881 2020-06-27 15:08:50.107 1113.998 01:14:09
6 ROCKY TOP AU17-OTC-0317 356.881 2020-06-27 15:33:16.017 1067.731 01:38:35
7 AMERICAN LOFT AU18-CORP-2550 361.017 2020-06-27 16:35:19.347 977.038 02:34:58
8 RUETER FAMILY LOFT AU18-CORP-2696 390.961 2020-06-27 17:57:41.050 939.138 03:16:14
9 TOPIGEONUSA AU19-CORP-5124 363.63 2020-06-27 17:30:25.357 907.243 03:26:29
10 ROCKY TOP AU14-CORP-1542 356.881 2020-06-27 18:27:22.990 823.878 04:32:42
11 RUETER FAMILY LOFT AU18-CORP-2684 390.961 2020-06-27 19:52:17.124 812.113 05:10:50
12 STEELE LOFT AU17-PNW-5212 363.861 2020-06-28 05:37:18.087 676.843 07:26:53
13 STEELE LOFT AU17-CAPT-0094 363.861 2020-06-28 06:24:16.780 644.826 08:13:52
14 RUETER FAMILY LOFT AU18-CORP-2774 390.961 2020-06-28 08:21:25.874 619.745 09:33:50
15 TOPIGEONUSA AU19-CORP-5140 363.63 2020-06-28 07:51:27.410 592.415 09:41:22
16 RUETER FAMILY LOFT AU18-CORP-2777 390.961 2020-06-28 09:56:39.859 570.787 11:09:04
17 TIM GRAVES AU17-FOYS-3050 355.554 2020-06-28 08:31:48.603 558.398 10:32:48
18 HENDRICKSON FAMILY LOFT AU19-CORP-4385 361.096 2020-06-28 08:50:29.490 557.803 10:43:52
19 RUETER FAMILY LOFT AU17-CORP-0589 390.961 2020-06-28 10:33:41.765 553.776 11:46:06
20 ROCKY TOP AU19-ARPU-29012 356.881 2020-06-28 09:37:54.830 529.264 11:37:05
21 RUETER FAMILY LOFT AU17-CORP-0425 390.961 2020-06-28 11:49:02.309 522.117 13:01:26
22 RUETER FAMILY LOFT AU17-CORP-0513 390.961 2020-06-28 11:50:47.198 521.425 13:03:11
23 RUETER FAMILY LOFT AU17-CORP-0521 390.961 2020-06-28 12:18:14.815 510.796 13:30:39
24 AMERICAN LOFT AU18-CORP-2549 361.017 2020-06-28 11:52:05.327 481.014 13:45:35
25 ROCKY TOP AU19-ARPU-29022 356.881 2020-06-28 14:04:25.227 432.205 16:03:35
26 AMERICAN LOFT AU17-CORP-0062 361.017 2020-06-28 14:56:14.320 422.161 16:49:44
27 ROCKY TOP AU18-CORP-3334 356.881 2020-06-28 19:28:20.818 353.428 21:27:31
AMERICAN LOFT AU18-CORP-2818 0 0000-00-00 00:00:00.000 0.000 00:00:00
HENDRICKSON FAMILY LOFT AU18-CORP-4005 0 0000-00-00 00:00:00.000 0.000 00:00:00
ROCKY TOP AU19-CORP-4431 0 0000-00-00 00:00:00.000 0.000 00:00:00
ROCKY TOP AU19-JEDD-0507 0 0000-00-00 00:00:00.000 0.000 00:00:00
RUETER FAMILY LOFT AU17-CORP-0449 0 0000-00-00 00:00:00.000 0.000 00:00:00
RUETER FAMILY LOFT AU18-CORP-2726 0 0000-00-00 00:00:00.000 0.000 00:00:00
RUETER FAMILY LOFT AU18-CORP-2728 0 0000-00-00 00:00:00.000 0.000 00:00:00